METAR Data
IDs: Format: Raw Decoded Include TAF

Data at: 1407 UTC 25 Nov 2020

KCWF 251345Z 31011KT 10SM SCT004 BKN020 BKN042 16/15 A3001
KCWF 251253Z COR 32016G20KT 6SM BR BKN010 OVC022 21/19 A3000 RMK WSHFT 50 FROPA RAB02E30
KCWF 251200Z 19010KT 10SM SCT016 BKN022 22/21 A2996
KCWF 251135Z AUTO 20011KT 10SM SCT017 BKN028 OVC050 23/21 A2996 RMK AO2 T02270209
KCWF 251115Z AUTO 17012KT 10SM SCT020 BKN031 OVC065 22/21 A2995 RMK AO2 T02220208
KCWF 251055Z AUTO 18007KT 10SM BKN031 OVC040 22/21 A2995 RMK AO2 T02250210
KCWF 251035Z AUTO 19008KT 10SM SCT010 BKN033 OVC050 22/21 A2995 RMK AO2 T02250210
KCWF 251015Z AUTO 19009KT 10SM SCT010 BKN015 OVC033 23/21 A2994 RMK AO2 T02250210
KCWF 250955Z AUTO 18010KT 10SM SCT010 BKN015 OVC035 23/21 A2994 RMK AO2 T02260211
KCWF 250935Z AUTO 18010KT 10SM BKN010 BKN019 OVC039 23/21 A2993 RMK AO2 T02260211
KCWF 250915Z AUTO 18010KT 10SM BKN010 BKN014 OVC038 23/21 A2994 RMK AO2 T02260210
KCWF 250855Z AUTO 18010KT 10SM SCT012 BKN016 OVC021 22/21 A2994 RMK AO2 T02230209
KCWF 250835Z AUTO 18011KT 10SM SCT014 BKN019 OVC025 22/21 A2994 RMK AO2 T02230209
KCWF 250815Z AUTO 18011G17KT 7SM -RA SCT015 BKN027 OVC046 22/21 A2994 RMK AO2 T02220208
KCWF 250755Z AUTO 18010KT 10SM SCT017 BKN048 OVC075 22/21 A2994 RMK AO2 T02200207
KCWF 250730Z AUTO 18012KT 10SM BKN007 OVC014 22/21 A2994 RMK AO2 T02200208
KCWF 250715Z AUTO 20011KT 10SM BKN009 BKN014 OVC023 22/21 A2995 RMK AO2 T02210209
KCWF 250655Z AUTO 18012G17KT 10SM BKN009 BKN012 OVC023 22/21 A2995 RMK AO2 T02220208
KCWF 250635Z AUTO 18012KT 10SM BKN009 OVC025 22/21 A2995 RMK AO2 T02220208
KCWF 250615Z AUTO 18009KT 10SM OVC009 22/21 A2995 RMK AO2 T02220208
KCWF 250555Z AUTO 17010KT 10SM SCT011 BKN021 OVC028 22/21 A2995 RMK AO2 T02200206 10220 20212
KCWF 250535Z AUTO 17010KT 10SM BKN019 OVC027 22/20 A2995 RMK AO2 T02180204
KCWF 250515Z AUTO 17010KT 10SM SCT021 OVC027 22/20 A2995 RMK AO2 T02170203
KCWF 250455Z AUTO 16013KT 10SM SCT008 BKN027 OVC036 21/20 A2995 RMK AO2 T02140201
KCWF 250435Z AUTO 16014G19KT 10SM BKN008 BKN016 OVC031 21/20 A2995 RMK AO2 T02140200
KCWF 250415Z AUTO 15014G17KT 10SM BKN008 OVC014 22/20 A2996 RMK AO2 T02170200
KCWF 250350Z 15014KT 10SM OVC008 22/20 A2997 RMK LAST
KCWF 250250Z 15014KT 10SM OVC010 22/20 A2996
KCWF 250150Z 14010KT 10SM OVC012 22/20 A2997
KCWF 250050Z 14008KT 10SM OVC014 22/20 A2997
KCWF 242355Z 14011KT 10SM OVC014 22/19 A2996
KCWF 242245Z 13016G19KT 10SM BKN018 OVC025 23/19 A2993
KCWF 242148Z 14017G24KT 10SM OVC020 23/19 A2995
KCWF 242045Z 15015G20KT 10SM BKN022 OVC028 23/19 A2997
KCWF 241848Z 12013G18KT 10SM BKN024 23/17 A3001
KCWF 241745Z 14014G21KT 10SM OVC021 23/17 A3004
KCWF 241651Z 11009KT 10SM OVC025 22/17 A3007
KCWF 241545Z 11009KT 10SM OVC025 19/14 A3010
KCWF 241450Z 11010KT 10SM SKC 17/14 A3010
KCWF 241355Z 10010KT 10SM SKC 14/12 A3011
KCWF 241255Z 10009KT 10SM SKC 12/11 A3010
KCWF 241200Z 10009KT 10SM BKN050 13/11 A3011
KCWF 241135Z AUTO 08008KT 10SM OVC045 13/11 A3010 RMK AO2 T01250109
KCWF 241115Z AUTO 08007KT 10SM OVC043 12/11 A3010 RMK AO2 T01220108
KCWF 241055Z AUTO 07005KT 10SM SCT037 BKN043 12/10 A3010 RMK AO2 T01160104
KCWF 241035Z AUTO 00000KT 10SM SCT035 11/10 A3011 RMK AO2 T01090097
KCWF 241015Z AUTO 08004KT 10SM CLR 11/10 A3010 RMK AO2 T01110097
KCWF 240955Z AUTO 08005KT 10SM CLR 11/10 A3010 RMK AO2 T01140098
KCWF 240935Z AUTO 08006KT 10SM SCT021 11/09 A3010 RMK AO2 T01090093
KCWF 240915Z AUTO 08005KT 10SM SCT021 11/09 A3011 RMK AO2 T01130094
KCWF 240855Z AUTO 07006KT 10SM CLR 11/09 A3011 RMK AO2 T01140092
KCWF 240835Z AUTO 07006KT 10SM CLR 11/09 A3011 RMK AO2 T01140090
KCWF 240815Z AUTO 07007KT 10SM SCT019 11/09 A3011 RMK AO2 T01110088
KCWF 240755Z AUTO 08006KT 10SM SCT019 11/09 A3012 RMK AO2 T01060087
KCWF 240735Z AUTO 08004KT 10SM CLR 11/09 A3012 RMK AO2 T01100088
KCWF 240715Z AUTO 00000KT 10SM CLR 10/09 A3012 RMK AO2 T01030085
KCWF 240655Z AUTO 10005KT 10SM CLR 10/08 A3012 RMK AO2 T01000083
KCWF 240635Z AUTO 09004KT 10SM CLR 10/08 A3013 RMK AO2 T01040084
KCWF 240615Z AUTO 08004KT 10SM CLR 11/09 A3014 RMK AO2 T01080086
KCWF 240555Z AUTO 08005KT 10SM CLR 11/09 A3014 RMK AO2 T01080085 10148 20107
KCWF 240535Z AUTO 08006KT 10SM CLR 11/08 A3015 RMK AO2 T01080084
KCWF 240515Z AUTO 08006KT 10SM CLR 11/08 A3015 RMK AO2 T01130085
KCWF 240455Z AUTO 08006KT 10SM CLR 11/09 A3016 RMK AO2 T01140086
KCWF 240435Z AUTO 08005KT 10SM CLR 12/09 A3016 RMK AO2 T01170085
KCWF 240415Z AUTO 07004KT 10SM CLR 12/09 A3016 RMK AO2 T01220087
KCWF 240345Z 07004KT 10SM SKC 12/09 A3017 RMK LAST
KCWF 240245Z 08005KT 10SM SKC 13/10 A3018